West, Illinois
Current Conditions -  °F | °C
As of 11:56 AM on Friday 28 Nov 2014 (Local Time) from KBMI Reporting Station
Clear Clear  
Wind Chill: 24°   Ceiling: Unl
Heat Index: 36°   Visibility: 10mi
Dew Point: 29°   Wind: 25mph
Humidity: 76%   Direction: 180°S
Pressure: 30.06"   Gusts: NA
Location:  40.382°N, 88.6331°W
Report Text: KBMI 281756Z 18022KT 10SM CLR 02/M02 A3006 RMK AO2 58052 T00221016 10016 21077 PK WND 18027/1708 SLP199
Loading
Personal Weather Stations






























Interactive Weather Map New forecast layout! Learn more

10-Day Weather Forecast

Advertisements
Track Severe Weather on mobile